Time;durP1;ratioP1;P1;durP2;ratioP2;P2;SDS_P1;SDS_P2;PMS_P1;PMS_P2;Temp;Humidity;BMP_temperature;BMP_pressure;BME280_temperature;BME280_humidity;BME280_pressure;Samples;Min_cycle;Max_cycle;Signal;HPM_P1;HPM_P2
2022/06/29 00:00:11;;;;;;;13.10;5.43;;;;;;;28.71;50.00;96612.69;5092711;28;20059;-35
2022/06/29 00:02:37;;;;;;;15.30;5.95;;;;;;;28.70;49.63;96611.19;5092840;28;20055;-34
2022/06/29 00:05:04;;;;;;;14.45;6.22;;;;;;;28.69;49.62;96609.69;5092489;28;20410;-34
2022/06/29 00:07:30;;;;;;;10.73;5.38;;;;;;;28.64;49.66;96607.78;5091032;28;20075;-34
2022/06/29 00:09:55;;;;;;;13.48;5.85;;;;;;;28.72;49.81;96605.81;5092359;28;20040;-34
2022/06/29 00:12:20;;;;;;;11.55;5.75;;;;;;;28.67;49.86;96603.16;5092600;28;20063;-34
2022/06/29 00:14:46;;;;;;;15.60;5.80;;;;;;;28.72;49.45;96605.06;5092368;28;20028;-34
2022/06/29 00:17:12;;;;;;;12.73;5.75;;;;;;;28.65;49.93;96602.97;5092670;28;20027;-34
2022/06/29 00:19:40;;;;;;;14.77;5.75;;;;;;;28.64;49.84;96602.22;5092379;28;20056;-34
2022/06/29 00:22:06;;;;;;;12.77;6.03;;;;;;;28.65;49.34;96602.97;5076093;28;20468;-34
2022/06/29 00:24:32;;;;;;;14.18;5.50;;;;;;;28.72;49.24;96608.59;5073486;28;20031;-34
2022/06/29 00:26:59;;;;;;;14.27;5.80;;;;;;;28.63;49.79;96600.72;5073405;28;20028;-34
2022/06/29 00:29:25;;;;;;;11.20;5.55;;;;;;;28.69;49.47;96604.09;5073547;28;20028;-34
2022/06/29 00:31:51;;;;;;;12.20;5.80;;;;;;;28.68;49.29;96601.88;5073463;28;20462;-34
2022/06/29 00:34:16;;;;;;;13.48;5.22;;;;;;;28.67;49.51;96600.38;5073814;28;20028;-35
2022/06/29 00:36:42;;;;;;;14.30;5.80;;;;;;;28.64;49.61;96607.03;5073665;28;20086;-34
2022/06/29 00:39:08;;;;;;;12.38;5.95;;;;;;;28.64;49.52;96613.38;5073908;28;20023;-34
2022/06/29 00:41:45;;;;;;;19.55;6.78;;;;;;;28.68;49.57;96607.47;5073133;28;20508;-35
2022/06/29 00:44:18;;;;;;;9.95;5.38;;;;;;;28.64;49.29;96602.22;5073506;28;20025;-34
2022/06/29 00:46:48;;;;;;;10.50;5.07;;;;;;;28.66;49.36;96605.22;5073330;28;20036;-34
2022/06/29 00:49:16;;;;;;;10.48;5.47;;;;;;;28.61;49.52;96597.72;5073352;28;20478;-34
2022/06/29 00:51:45;;;;;;;12.23;5.80;;;;;;;28.63;49.41;96597.16;5073090;28;20031;-34
2022/06/29 00:54:15;;;;;;;12.60;5.40;;;;;;;28.66;49.18;96596.84;5073195;28;20119;-34
2022/06/29 00:56:41;;;;;;;11.23;5.40;;;;;;;28.57;49.28;96594.50;5073453;28;20565;-34
2022/06/29 00:59:10;;;;;;;14.25;5.57;;;;;;;28.62;49.53;96599.22;5073116;28;20025;-35
2022/06/29 01:01:36;;;;;;;11.38;5.38;;;;;;;28.61;49.55;96603.28;5071647;28;20123;-34
2022/06/29 01:04:01;;;;;;;9.95;5.30;;;;;;;28.51;50.21;96605.06;5073292;28;20056;-34
2022/06/29 01:06:27;;;;;;;12.52;6.18;;;;;;;28.52;50.02;96606.56;5072890;28;20063;-34
2022/06/29 01:08:52;;;;;;;14.73;6.15;;;;;;;28.54;50.32;96612.34;5073185;28;20035;-34
2022/06/29 01:11:18;;;;;;;13.27;5.88;;;;;;;28.60;49.57;96608.13;5073510;28;20073;-34
2022/06/29 01:13:48;;;;;;;13.35;5.47;;;;;;;28.57;49.69;96606.41;5073071;28;20025;-34
2022/06/29 01:16:13;;;;;;;15.70;5.30;;;;;;;28.54;49.97;96598.38;5073055;28;20021;-34
2022/06/29 01:18:39;;;;;;;18.40;5.95;;;;;;;28.54;49.96;96599.13;5072913;28;20060;-34
2022/06/29 01:21:08;;;;;;;10.10;5.07;;;;;;;28.55;49.46;96591.53;5073341;28;20020;-34
2022/06/29 01:23:34;;;;;;;14.45;5.40;;;;;;;28.56;49.97;96596.53;5073156;28;20378;-34
2022/06/29 01:26:08;;;;;;;12.88;4.93;;;;;;;28.62;49.27;96606.81;5072787;28;20025;-34
2022/06/29 01:28:34;;;;;;;11.85;5.68;;;;;;;28.53;49.91;96596.88;5072865;28;20356;-34
2022/06/29 01:31:00;;;;;;;11.13;5.05;;;;;;;28.50;49.53;96597.97;5073059;28;20032;-34
2022/06/29 01:33:26;;;;;;;8.73;4.93;;;;;;;28.52;49.54;96600.97;5072703;28;20031;-34
2022/06/29 01:35:52;;;;;;;13.98;5.07;;;;;;;28.60;49.28;96601.78;5072776;28;20032;-34
2022/06/29 01:38:20;;;;;;;17.17;5.45;;;;;;;28.47;49.26;96597.00;5072724;28;20029;-34
2022/06/29 01:40:46;;;;;;;12.60;5.13;;;;;;;28.54;49.34;96590.78;5072837;28;20032;-34
2022/06/29 01:43:12;;;;;;;13.40;4.95;;;;;;;28.54;48.88;96590.78;5071427;28;20024;-34
2022/06/29 01:45:38;;;;;;;14.40;5.28;;;;;;;28.58;49.18;96590.41;5072625;28;20486;-34
2022/06/29 01:48:04;;;;;;;10.57;4.50;;;;;;;28.53;49.01;96582.94;5072658;28;20111;-34
2022/06/29 01:50:30;;;;;;;12.02;4.45;;;;;;;28.56;49.22;96585.38;5072604;28;20033;-34
2022/06/29 01:52:55;;;;;;;11.23;5.18;;;;;;;28.49;49.48;96574.16;5074628;28;20028;-35
2022/06/29 01:55:21;;;;;;;13.02;4.85;;;;;;;28.51;49.18;96577.16;5076377;28;20020;-34
2022/06/29 01:57:48;;;;;;;13.88;4.80;;;;;;;28.53;49.14;96575.31;5076138;28;20067;-34
2022/06/29 02:00:14;;;;;;;11.88;4.28;;;;;;;28.57;49.00;96580.53;5076135;28;20028;-34
2022/06/29 02:02:39;;;;;;;12.13;3.90;;;;;;;28.59;48.73;96577.97;5076210;28;20572;-34
2022/06/29 02:05:05;;;;;;;8.77;4.45;;;;;;;28.52;49.01;96570.28;5075780;28;20194;-34
2022/06/29 02:07:30;;;;;;;12.10;4.68;;;;;;;28.46;48.81;96570.41;5075907;28;20359;-34
2022/06/29 02:09:56;;;;;;;13.10;4.40;;;;;;;28.51;48.54;96572.31;5075897;28;20024;-35
2022/06/29 02:12:22;;;;;;;12.93;5.20;;;;;;;28.47;48.80;96571.16;5076093;28;20489;-34
2022/06/29 02:14:47;;;;;;;13.13;5.10;;;;;;;28.58;48.60;96565.31;5075888;28;20060;-35
2022/06/29 02:17:13;;;;;;;9.10;4.30;;;;;;;28.56;48.25;96573.50;5075799;28;20071;-34
2022/06/29 02:19:39;;;;;;;13.13;4.40;;;;;;;28.58;48.32;96566.06;5075143;28;20427;-34
2022/06/29 02:22:04;;;;;;;12.15;4.32;;;;;;;28.52;48.66;96559.13;5074447;28;20071;-34
2022/06/29 02:24:30;;;;;;;9.20;4.25;;;;;;;28.52;48.67;96559.13;5075931;28;20024;-34
2022/06/29 02:26:55;;;;;;;11.25;4.30;;;;;;;28.61;48.10;96558.63;5075669;28;20115;-34
2022/06/29 02:29:21;;;;;;;14.82;4.60;;;;;;;28.53;48.28;96558.59;5075633;28;20020;-34
2022/06/29 02:34:46;;;;;;;11.20;4.40;;;;;;;28.51;48.07;96552.03;5075555;28;20098;-34
2022/06/29 02:37:14;;;;;;;10.98;3.80;;;;;;;28.51;47.91;96554.84;5075612;28;20494;-34
2022/06/29 02:39:42;;;;;;;12.85;4.70;;;;;;;28.52;48.05;96556.34;5075462;28;20024;-35
2022/06/29 02:42:08;;;;;;;9.45;4.22;;;;;;;28.50;47.85;96559.66;5075787;28;20429;-34
2022/06/29 02:44:34;;;;;;;10.15;4.10;;;;;;;28.51;47.96;96554.84;5075298;28;20060;-34
2022/06/29 02:46:59;;;;;;;11.55;3.83;;;;;;;28.51;48.18;96555.59;5075422;28;20031;-34
2022/06/29 02:49:25;;;;;;;13.82;4.20;;;;;;;28.50;48.04;96562.44;5075378;28;20496;-34
2022/06/29 02:51:50;;;;;;;11.07;4.03;;;;;;;28.46;47.59;96564.06;5075278;28;20028;-34
2022/06/29 02:54:16;;;;;;;14.82;5.13;;;;;;;28.52;48.30;96567.50;5075243;28;20050;-34
2022/06/29 02:56:41;;;;;;;13.15;4.30;;;;;;;28.47;47.88;96557.19;5074893;28;20028;-35
2022/06/29 02:59:07;;;;;;;9.50;3.60;;;;;;;28.47;47.52;96557.19;5075057;28;20017;-34
2022/06/29 03:01:32;;;;;;;8.65;3.53;;;;;;;28.47;47.96;96566.31;5075171;28;20115;-34
2022/06/29 03:03:58;;;;;;;9.02;4.05;;;;;;;28.40;48.06;96561.44;5074889;28;20386;-34
2022/06/29 03:06:23;;;;;;;11.68;3.95;;;;;;;28.45;47.65;96568.91;5074711;28;20119;-34
2022/06/29 03:08:49;;;;;;;10.65;3.47;;;;;;;28.41;48.19;96564.97;5074798;28;20017;-34
2022/06/29 03:11:14;;;;;;;10.68;4.13;;;;;;;28.36;48.70;96572.16;5075065;28;20028;-34
2022/06/29 03:13:39;;;;;;;11.05;4.05;;;;;;;28.39;48.27;96571.09;5074671;28;20210;-35
2022/06/29 03:16:05;;;;;;;10.30;4.57;;;;;;;28.41;48.48;96576.13;5074840;28;20061;-34
2022/06/29 03:18:30;;;;;;;11.35;4.15;;;;;;;28.37;48.65;96581.28;5074475;28;20016;-34
2022/06/29 03:20:56;;;;;;;13.23;4.28;;;;;;;28.39;48.38;96581.50;5074851;28;20024;-35
2022/06/29 03:23:21;;;;;;;12.50;3.92;;;;;;;28.36;48.78;96579.78;5074491;28;20390;-34
2022/06/29 03:25:47;;;;;;;10.32;3.80;;;;;;;28.37;48.68;96579.25;5074386;28;20097;-34
2022/06/29 03:28:12;;;;;;;12.30;3.78;;;;;;;28.40;48.19;96580.19;5074307;28;20024;-34
2022/06/29 03:30:38;;;;;;;10.70;4.28;;;;;;;28.35;48.79;96583.84;5074568;28;20044;-34
2022/06/29 03:33:03;;;;;;;11.70;3.80;;;;;;;28.39;48.24;96587.06;5074373;28;20375;-34
2022/06/29 03:35:29;;;;;;;14.23;4.45;;;;;;;28.39;48.42;96571.09;5074394;28;20024;-34
2022/06/29 03:37:54;;;;;;;13.23;4.10;;;;;;;28.35;49.11;96575.50;5074319;28;20033;-34
2022/06/29 03:40:20;;;;;;;12.27;3.80;;;;;;;28.41;48.04;96576.88;5074245;28;20024;-34
2022/06/29 03:42:46;;;;;;;9.45;3.47;;;;;;;28.35;48.46;96581.06;5074320;28;20449;-34
2022/06/29 03:45:12;;;;;;;9.75;3.88;;;;;;;28.38;47.99;96577.94;5073939;28;20478;-35
2022/06/29 03:47:39;;;;;;;9.23;3.45;;;;;;;28.38;48.03;96580.00;5074300;28;20020;-35
2022/06/29 03:50:06;;;;;;;10.98;3.70;;;;;;;28.30;48.26;96574.34;5073907;28;20026;-34
2022/06/29 03:52:32;;;;;;;13.02;4.20;;;;;;;28.37;48.18;96582.03;5073957;28;20440;-34
2022/06/29 03:55:01;;;;;;;7.05;3.35;;;;;;;28.36;48.03;96582.56;5073903;28;20021;-34
2022/06/29 03:57:26;;;;;;;9.43;3.70;;;;;;;28.32;48.16;96577.31;5074112;28;20028;-34
2022/06/29 03:59:52;;;;;;;9.63;3.88;;;;;;;28.35;48.09;96575.50;5073971;28;20028;-34
2022/06/29 04:02:17;;;;;;;9.50;3.67;;;;;;;28.39;47.85;96576.66;5073807;28;20024;-34
2022/06/29 04:04:43;;;;;;;10.20;4.70;;;;;;;28.38;47.96;96571.63;5072284;28;20378;-34
2022/06/29 04:07:09;;;;;;;12.52;4.20;;;;;;;28.35;48.11;96589.44;5073687;28;20028;-34
2022/06/29 04:09:34;;;;;;;8.98;3.80;;;;;;;28.40;47.38;96583.00;5073941;28;20158;-34
2022/06/29 04:11:59;;;;;;;11.82;4.35;;;;;;;28.39;47.76;96581.50;5072374;28;20025;-34
2022/06/29 04:14:27;;;;;;;12.18;3.72;;;;;;;28.30;47.74;96584.75;5073549;28;20526;-34
2022/06/29 04:16:54;;;;;;;12.50;4.63;;;;;;;28.34;47.49;96585.16;5073251;28;20490;-34
2022/06/29 04:19:20;;;;;;;12.52;4.50;;;;;;;28.33;47.73;96589.22;5073678;28;20028;-34
2022/06/29 04:21:47;;;;;;;14.40;4.53;;;;;;;28.27;48.15;96592.16;5073481;28;20367;-34
2022/06/29 04:24:13;;;;;;;10.60;4.50;;;;;;;28.29;48.27;96591.63;5074126;28;20481;-34
2022/06/29 04:26:38;;;;;;;10.13;4.47;;;;;;;28.28;48.31;96592.91;5073439;28;20021;-34
2022/06/29 04:29:04;;;;;;;13.45;4.15;;;;;;;28.28;48.66;96595.69;5073448;28;20441;-35
2022/06/29 04:31:30;;;;;;;10.45;4.65;;;;;;;28.30;47.85;96595.91;5073485;28;20028;-34
2022/06/29 04:33:55;;;;;;;16.92;4.65;;;;;;;28.29;48.28;96595.16;5073908;28;20031;-34
2022/06/29 04:36:21;;;;;;;15.23;4.78;;;;;;;28.29;47.85;96605.56;5073313;28;20020;-34
2022/06/29 04:38:46;;;;;;;11.77;4.43;;;;;;;28.24;48.70;96607.94;5076437;28;20462;-34
2022/06/29 04:41:12;;;;;;;14.07;4.63;;;;;;;28.24;48.09;96602.34;5092157;28;20103;-34
2022/06/29 04:43:38;;;;;;;13.32;4.43;;;;;;;28.26;48.23;96606.63;5080729;28;20029;-34
2022/06/29 04:46:22;;;;;;;13.70;4.43;;;;;;;28.28;48.40;96606.84;5071905;28;20024;-34
2022/06/29 04:48:54;;;;;;;13.15;4.22;;;;;;;28.27;47.92;96596.97;5071728;28;20028;-35
2022/06/29 04:51:19;;;;;;;11.70;3.95;;;;;;;28.24;48.22;96605.13;5071954;28;20056;-35
2022/06/29 04:53:46;;;;;;;12.13;4.22;;;;;;;28.26;48.70;96612.22;5071787;28;20059;-34
2022/06/29 04:56:12;;;;;;;14.25;4.45;;;;;;;28.23;48.62;96614.78;5085962;28;20016;-34
2022/06/29 04:58:37;;;;;;;14.93;4.63;;;;;;;28.24;48.35;96609.97;5091791;28;20028;-34
2022/06/29 05:01:03;;;;;;;11.90;4.57;;;;;;;28.26;48.38;96606.63;5091663;28;20093;-35
2022/06/29 05:03:28;;;;;;;13.20;4.93;;;;;;;28.26;48.63;96607.38;5091786;28;20024;-34
2022/06/29 05:05:54;;;;;;;15.52;5.53;;;;;;;28.27;47.81;96603.31;5091650;28;20040;-34
2022/06/29 05:08:19;;;;;;;11.90;4.00;;;;;;;28.27;48.43;96608.88;5091704;28;20495;-35
2022/06/29 05:10:45;;;;;;;11.82;4.32;;;;;;;28.28;48.01;96607.59;5091984;28;20142;-34
2022/06/29 05:13:10;;;;;;;12.98;4.60;;;;;;;28.30;48.13;96607.06;5091563;28;20028;-35
2022/06/29 05:15:39;;;;;;;11.82;4.47;;;;;;;28.25;48.66;96608.69;5091698;28;20012;-34
2022/06/29 05:18:05;;;;;;;15.25;4.60;;;;;;;28.24;48.57;96609.97;5091850;28;20381;-35
2022/06/29 05:20:30;;;;;;;11.68;4.78;;;;;;;28.26;48.91;96612.22;5091681;28;20111;-36
2022/06/29 05:22:56;;;;;;;9.25;4.35;;;;;;;28.24;48.44;96609.97;5090343;28;20121;-34
2022/06/29 05:25:22;;;;;;;13.07;4.25;;;;;;;28.21;48.65;96613.81;5091429;28;20035;-34
2022/06/29 05:27:48;;;;;;;13.35;4.60;;;;;;;28.20;49.01;96615.13;5093477;28;20039;-34
2022/06/29 05:30:14;;;;;;;11.68;4.57;;;;;;;28.17;49.02;96614.16;5095471;28;20028;-34
2022/06/29 05:32:40;;;;;;;10.38;4.18;;;;;;;28.20;48.62;96615.88;5095655;28;20077;-34
2022/06/29 05:35:07;;;;;;;14.60;4.45;;;;;;;28.18;48.93;96618.47;5095376;28;20032;-34
2022/06/29 05:37:32;;;;;;;14.88;4.85;;;;;;;28.17;48.54;96616.94;5095379;28;20032;-34
2022/06/29 05:39:58;;;;;;;12.55;4.82;;;;;;;28.21;48.87;96614.56;5095578;28;20415;-34
2022/06/29 05:42:26;;;;;;;12.75;5.03;;;;;;;28.26;49.02;96615.00;5095524;28;20062;-34
2022/06/29 05:44:52;;;;;;;14.50;4.35;;;;;;;28.20;48.40;96615.88;5095453;28;20020;-34
2022/06/29 05:47:17;;;;;;;15.52;4.03;;;;;;;28.17;48.36;96614.16;5095310;28;20024;-34
2022/06/29 05:49:43;;;;;;;13.82;5.13;;;;;;;28.19;48.45;96619.94;5095266;28;20016;-34
2022/06/29 05:52:09;;;;;;;10.05;4.70;;;;;;;28.14;48.36;96615.22;5095030;28;20389;-34
2022/06/29 05:54:34;;;;;;;13.00;4.53;;;;;;;28.18;48.24;96615.69;5095229;28;20039;-35
2022/06/29 05:57:00;;;;;;;11.27;4.00;;;;;;;28.19;47.90;96622.72;5095223;28;20607;-34
2022/06/29 05:59:25;;;;;;;10.60;3.80;;;;;;;28.13;48.19;96619.31;5095046;28;20035;-34
2022/06/29 06:01:51;;;;;;;8.40;3.80;;;;;;;28.11;48.32;96633.03;5094767;28;20039;-34
2022/06/29 06:04:16;;;;;;;10.88;3.80;;;;;;;28.13;48.22;96624.88;5094950;28;20035;-34
2022/06/29 06:06:42;;;;;;;8.55;3.60;;;;;;;28.20;47.83;96637.44;5094766;28;20125;-34
2022/06/29 06:09:07;;;;;;;8.80;3.80;;;;;;;28.17;47.98;96632.91;5094995;28;20043;-34
2022/06/29 06:11:33;;;;;;;12.15;4.00;;;;;;;28.14;47.91;96643.09;5094922;28;20035;-34
2022/06/29 06:13:59;;;;;;;10.23;3.88;;;;;;;28.16;48.06;96637.00;5094624;28;20020;-34
2022/06/29 06:16:24;;;;;;;8.77;3.83;;;;;;;28.12;47.90;96642.13;5094664;28;20419;-34
2022/06/29 06:18:49;;;;;;;9.70;4.20;;;;;;;28.14;47.89;96640.31;5094496;28;20499;-34
2022/06/29 06:21:15;;;;;;;9.40;3.88;;;;;;;28.10;48.13;96645.47;5093059;28;20454;-34
2022/06/29 06:23:40;;;;;;;9.60;3.83;;;;;;;28.09;48.08;96638.38;5094491;28;20042;-34
2022/06/29 06:26:06;;;;;;;11.30;4.15;;;;;;;28.10;47.73;96639.88;5094233;28;20034;-34
2022/06/29 06:28:32;;;;;;;10.77;3.83;;;;;;;28.12;47.72;96640.09;5088656;28;20025;-34
2022/06/29 06:30:58;;;;;;;11.23;3.92;;;;;;;28.14;47.34;96650.72;5074271;28;20546;-34
2022/06/29 06:33:23;;;;;;;8.30;3.30;;;;;;;28.07;47.72;96638.16;5074113;28;20123;-34
2022/06/29 06:35:49;;;;;;;8.40;3.25;;;;;;;28.09;47.75;96641.19;5074238;28;20035;-35
2022/06/29 06:38:15;;;;;;;11.85;4.10;;;;;;;28.10;47.55;96644.72;5073114;28;20046;-34
2022/06/29 06:43:24;;;;;;;5.80;2.90;;;;;;;28.09;47.29;96652.31;5074138;28;20097;-34
2022/06/29 06:45:50;;;;;;;7.63;3.15;;;;;;;28.02;47.57;96652.25;5073894;28;20024;-34
2022/06/29 06:48:15;;;;;;;7.28;2.88;;;;;;;28.06;47.38;96659.00;5073540;28;20022;-34
2022/06/29 06:50:41;;;;;;;8.90;3.28;;;;;;;28.03;47.28;96656.53;5073728;28;20024;-34
2022/06/29 06:53:06;;;;;;;7.07;3.22;;;;;;;28.05;46.85;96653.97;5073789;28;20485;-34
2022/06/29 06:55:32;;;;;;;8.85;3.33;;;;;;;28.02;47.30;96649.44;5072498;28;20032;-34
2022/06/29 06:57:57;;;;;;;7.05;3.55;;;;;;;28.01;47.29;96653.53;5073837;28;20024;-34
2022/06/29 07:00:23;;;;;;;9.73;3.78;;;;;;;28.02;47.51;96655.78;5073366;28;20126;-34
2022/06/29 07:02:48;;;;;;;8.75;3.55;;;;;;;28.03;47.32;96648.91;5072605;28;20024;-34
2022/06/29 07:05:14;;;;;;;6.93;2.85;;;;;;;28.05;47.35;96651.91;5074771;28;20048;-34
2022/06/29 07:07:40;;;;;;;5.53;3.00;;;;;;;27.98;47.06;96651.81;5083755;28;20538;-34
2022/06/29 07:10:06;;;;;;;4.85;2.75;;;;;;;27.93;47.17;96653.44;5094836;28;20028;-34
2022/06/29 07:12:31;;;;;;;9.75;3.28;;;;;;;28.11;46.50;96652.53;5094982;28;20031;-34
2022/06/29 07:14:57;;;;;;;8.05;2.90;;;;;;;28.10;46.28;96656.63;5095034;28;20458;-34
2022/06/29 07:17:23;;;;;;;7.25;3.15;;;;;;;28.06;46.68;96655.47;5094866;28;20103;-34
2022/06/29 07:19:49;;;;;;;8.77;3.22;;;;;;;28.01;46.51;96654.28;5095147;28;20169;-34
2022/06/29 07:22:15;;;;;;;6.15;3.17;;;;;;;28.06;46.28;96658.25;5094725;28;20470;-34
2022/06/29 07:24:40;;;;;;;8.57;3.17;;;;;;;28.00;45.97;96647.19;5094855;28;20027;-34
2022/06/29 07:27:06;;;;;;;6.13;2.75;;;;;;;28.06;45.85;96656.22;5088810;28;20021;-34
2022/06/29 07:29:32;;;;;;;6.88;2.35;;;;;;;27.96;46.26;96651.59;5082319;28;20032;-34
2022/06/29 07:31:58;;;;;;;5.53;2.28;;;;;;;27.92;45.58;96662.34;5092315;28;20111;-34
2022/06/29 07:34:23;;;;;;;6.53;2.50;;;;;;;28.02;45.45;96646.66;5094444;28;20817;-34
2022/06/29 07:36:48;;;;;;;6.50;2.80;;;;;;;27.93;46.00;96658.25;5094583;28;20031;-34
2022/06/29 07:39:14;;;;;;;5.40;2.45;;;;;;;28.04;45.26;96653.22;5094730;28;20019;-34
2022/06/29 07:41:41;;;;;;;6.03;2.50;;;;;;;28.09;45.34;96643.22;5094886;28;20020;-35
2022/06/29 07:44:07;;;;;;;4.95;2.15;;;;;;;27.92;45.59;96642.81;5094652;28;20488;-35
2022/06/29 07:46:32;;;;;;;7.13;1.92;;;;;;;27.99;45.21;96644.94;5094395;28;20043;-35
2022/06/29 07:48:58;;;;;;;5.38;2.30;;;;;;;28.03;45.28;96640.56;5094449;28;20028;-34
2022/06/29 07:51:23;;;;;;;3.60;2.10;;;;;;;28.00;44.88;96647.19;5093457;28;20027;-34
2022/06/29 07:53:49;;;;;;;6.22;2.40;;;;;;;27.96;44.78;96641.19;5094417;28;20028;-34
2022/06/29 07:56:14;;;;;;;6.00;2.45;;;;;;;27.96;44.81;96638.41;5092974;28;20103;-34
2022/06/29 07:58:40;;;;;;;5.85;2.30;;;;;;;27.91;45.07;96636.50;5094093;28;20452;-34
2022/06/29 08:01:05;;;;;;;4.57;2.20;;;;;;;26.59;43.43;96643.81;5093895;28;20028;-31
2022/06/29 08:03:31;;;;;;;4.53;2.00;;;;;;;27.02;44.69;96646.47;5094377;28;20089;-34
2022/06/29 08:05:58;;;;;;;9.00;2.05;;;;;;;27.28;44.22;96646.53;5093623;28;20051;-34
2022/06/29 08:08:24;;;;;;;10.18;1.77;;;;;;;27.43;43.04;96643.22;5094356;28;20077;-34
2022/06/29 08:10:49;;;;;;;7.00;1.95;;;;;;;27.57;43.53;96638.44;5094211;28;20028;-34
2022/06/29 08:13:15;;;;;;;4.20;1.60;;;;;;;27.50;43.09;96639.78;5093731;28;20075;-34
2022/06/29 08:15:42;;;;;;;5.88;1.80;;;;;;;26.86;44.93;96641.88;5093876;28;20466;-35
2022/06/29 08:18:07;;;;;;;6.35;1.60;;;;;;;27.23;43.06;96636.22;5093874;28;20367;-34
2022/06/29 08:20:33;;;;;;;5.03;1.92;;;;;;;27.51;42.97;96638.50;5094041;28;20076;-34
2022/06/29 08:22:58;;;;;;;5.00;1.77;;;;;;;27.53;42.76;96645.06;5093817;28;20020;-34
2022/06/29 08:25:24;;;;;;;7.82;2.17;;;;;;;27.60;42.82;96643.69;5093683;28;20081;-34
2022/06/29 08:27:54;;;;;;;10.18;1.95;;;;;;;27.61;42.33;96639.59;5093806;28;20024;-34
2022/06/29 08:30:20;;;;;;;5.15;1.75;;;;;;;27.57;42.26;96649.59;5093658;28;20052;-35
2022/06/29 08:32:45;;;;;;;4.80;1.70;;;;;;;27.28;41.63;96646.53;5093787;28;20047;-34
2022/06/29 08:35:12;;;;;;;7.68;1.92;;;;;;;27.53;43.11;96635.94;5093567;28;20031;-34
2022/06/29 08:37:38;;;;;;;6.47;1.65;;;;;;;27.65;42.68;96639.28;5093713;28;20024;-35
2022/06/29 08:40:06;;;;;;;10.75;2.05;;;;;;;27.24;43.17;96639.75;5093817;28;20089;-34
2022/06/29 08:42:34;;;;;;;5.28;1.85;;;;;;;27.33;42.32;96640.09;5093491;28;20105;-35
2022/06/29 08:45:00;;;;;;;5.20;1.83;;;;;;;27.35;42.51;96643.09;5093913;28;20035;-34
2022/06/29 08:47:26;;;;;;;6.15;2.03;;;;;;;27.35;42.82;96648.66;5093479;28;20020;-35
2022/06/29 08:49:51;;;;;;;6.88;2.28;;;;;;;27.39;41.98;96648.34;5093513;28;20032;-34
2022/06/29 08:52:18;;;;;;;3.85;1.85;;;;;;;27.39;42.59;96646.31;5093404;28;20024;-35
2022/06/29 08:54:48;;;;;;;6.70;1.85;;;;;;;27.35;42.43;96643.09;5093541;28;20444;-35
2022/06/29 08:57:15;;;;;;;4.88;2.05;;;;;;;27.37;42.39;96642.56;5093317;28;20028;-34
2022/06/29 08:59:41;;;;;;;8.95;2.00;;;;;;;27.40;42.12;96636.69;5093354;28;20077;-35
2022/06/29 09:02:08;;;;;;;6.75;1.98;;;;;;;27.54;41.76;96640.22;5085813;28;20029;-34
2022/06/29 09:04:33;;;;;;;5.65;2.00;;;;;;;27.48;42.00;96640.31;5076729;28;20103;-35
2022/06/29 09:06:59;;;;;;;5.15;1.55;;;;;;;27.48;42.42;96631.22;5077155;28;20021;-34
2022/06/29 09:09:24;;;;;;;4.68;1.80;;;;;;;27.65;42.13;96640.03;5077276;28;20024;-34
2022/06/29 09:11:53;;;;;;;5.72;1.77;;;;;;;27.52;42.43;96637.97;5077212;28;20037;-34
2022/06/29 09:14:21;;;;;;;6.63;2.20;;;;;;;27.37;42.84;96648.13;5077145;28;20024;-35
2022/06/29 09:17:03;;;;;;;4.90;1.73;;;;;;;27.16;42.57;96629.25;5077240;28;20469;-34
2022/06/29 09:19:34;;;;;;;4.63;2.05;;;;;;;27.38;41.99;96642.03;5077474;28;20020;-34
2022/06/29 09:22:00;;;;;;;3.63;1.50;;;;;;;27.37;42.15;96643.31;5076813;28;20028;-34
2022/06/29 09:24:28;;;;;;;3.97;1.67;;;;;;;27.31;41.62;96639.16;5077194;28;20032;-34
2022/06/29 09:26:59;;;;;;;4.28;1.80;;;;;;;27.52;42.27;96649.13;5076712;28;20029;-34
2022/06/29 09:29:30;;;;;;;5.13;1.85;;;;;;;27.69;42.23;96637.69;5076763;28;20021;-34
2022/06/29 09:32:04;;;;;;;4.18;1.65;;;;;;;27.61;41.63;96645.19;5076912;28;20025;-34
2022/06/29 09:34:49;;;;;;;6.40;2.00;;;;;;;27.34;41.96;96651.97;5075670;28;20025;-34
2022/06/29 09:37:16;;;;;;;5.13;1.83;;;;;;;27.56;42.04;96642.53;5076646;28;20115;-34
2022/06/29 09:39:47;;;;;;;5.13;1.60;;;;;;;27.64;41.74;96637.78;5075652;28;20105;-34
2022/06/29 09:42:15;;;;;;;3.80;1.73;;;;;;;27.74;42.12;96647.22;5076428;28;20028;-34
2022/06/29 09:44:41;;;;;;;4.97;1.80;;;;;;;27.65;42.00;96642.84;5076489;28;20028;-34
2022/06/29 09:47:15;;;;;;;2.90;1.60;;;;;;;27.71;42.58;96642.72;5076542;28;20035;-34
2022/06/29 09:49:45;;;;;;;4.38;1.58;;;;;;;27.74;41.70;96647.97;5076656;28;20035;-34
2022/06/29 09:52:11;;;;;;;5.05;1.85;;;;;;;27.54;42.00;96648.59;5076670;28;20028;-34
2022/06/29 09:54:44;;;;;;;5.10;1.83;;;;;;;27.80;42.04;96645.09;5076530;28;20444;-34
2022/06/29 09:57:12;;;;;;;5.40;1.70;;;;;;;27.51;41.96;96649.66;5076464;28;20028;-34
2022/06/29 10:02:39;;;;;;;8.15;1.83;;;;;;;27.63;42.12;96653.00;5076479;28;20039;-34
2022/06/29 10:05:13;;;;;;;5.82;2.08;;;;;;;27.63;42.39;96653.00;5075892;28;20051;-34
2022/06/29 10:07:45;;;;;;;5.15;1.75;;;;;;;27.75;41.34;96655.03;5075976;28;20024;-34
2022/06/29 10:10:16;;;;;;;5.25;2.03;;;;;;;27.77;41.93;96654.50;5075926;28;20086;-34
2022/06/29 10:16:15;;;;;;;4.47;1.95;;;;;;;27.78;41.30;96647.66;5076110;28;20032;-34
2022/06/29 10:19:09;;;;;;;4.32;1.70;;;;;;;27.77;41.86;96646.91;5075978;28;20036;-34
2022/06/29 10:21:34;;;;;;;4.50;1.40;;;;;;;27.80;41.26;96647.88;5076058;28;20029;-35
2022/06/29 10:24:01;;;;;;;3.42;1.75;;;;;;;27.79;41.53;96635.97;5075997;28;20029;-34
2022/06/29 10:26:34;;;;;;;5.47;1.83;;;;;;;27.84;41.50;96646.25;5075710;28;20028;-34
2022/06/29 10:29:06;;;;;;;5.40;2.22;;;;;;;27.85;41.30;96636.59;5075918;28;20032;-34
2022/06/29 10:31:53;;;;;;;4.65;1.92;;;;;;;27.77;41.71;96635.00;5075594;28;20016;-34
2022/06/29 10:37:02;;;;;;;3.67;1.50;;;;;;;27.79;41.58;96622.03;5075542;28;20432;-34
2022/06/29 10:39:51;;;;;;;5.18;2.28;;;;;;;27.83;41.60;96628.03;5075583;28;20028;-34
2022/06/29 10:45:16;;;;;;;7.35;1.73;;;;;;;27.67;41.33;96637.47;5075289;28;20042;-34
2022/06/29 10:47:56;;;;;;;4.03;1.67;;;;;;;27.81;41.29;96632.66;5075452;28;20020;-34
2022/06/29 10:50:28;;;;;;;4.70;1.80;;;;;;;27.85;41.41;96635.84;5075249;28;20420;-34
2022/06/29 10:53:02;;;;;;;5.25;1.77;;;;;;;27.85;41.48;96628.25;5075504;28;20032;-34
2022/06/29 10:55:28;;;;;;;5.35;1.70;;;;;;;27.87;41.32;96620.09;5075371;28;20497;-34
2022/06/29 10:57:55;;;;;;;4.57;1.42;;;;;;;27.94;40.76;96620.75;5075170;28;20107;-34
2022/06/29 11:00:22;;;;;;;3.47;1.65;;;;;;;27.86;41.07;96624.16;5074132;28;20024;-34
2022/06/29 11:02:48;;;;;;;5.35;1.65;;;;;;;27.72;40.93;96608.00;5075344;28;20024;-33
2022/06/29 11:05:14;;;;;;;14.48;2.30;;;;;;;28.93;39.56;96612.16;5074447;28;20041;-35
2022/06/29 11:13:04;;;;;;;11.13;2.40;;;;;;;29.51;38.67;96613.00;5074711;28;20021;-34
2022/06/29 11:15:39;;;;;;;7.03;1.80;;;;;;;29.40;38.97;96597.28;5074652;28;20393;-35
2022/06/29 11:18:06;;;;;;;9.07;2.38;;;;;;;29.34;39.26;96602.25;5075171;28;20017;-35
2022/06/29 11:20:31;;;;;;;5.07;1.63;;;;;;;29.37;38.96;96598.34;5074599;28;20024;-35
2022/06/29 11:22:58;;;;;;;5.10;1.58;;;;;;;29.41;38.77;96593.19;5074500;28;20074;-35
2022/06/29 11:25:24;;;;;;;4.45;1.75;;;;;;;29.34;39.34;96593.09;5073340;28;20431;-35
2022/06/29 11:27:50;;;;;;;6.65;1.90;;;;;;;29.36;39.13;96588.47;5074834;28;20063;-35
2022/06/29 11:30:21;;;;;;;5.78;2.08;;;;;;;29.29;39.26;96594.78;5074417;28;20027;-35
2022/06/29 11:32:48;;;;;;;3.05;1.40;;;;;;;29.22;39.36;96599.00;5074482;28;20028;-35
2022/06/29 11:35:21;;;;;;;4.30;1.50;;;;;;;29.20;39.57;96596.00;5074357;28;20035;-35
2022/06/29 11:38:01;;;;;;;5.25;1.55;;;;;;;29.18;39.59;96593.00;5074430;28;20052;-35
2022/06/29 11:40:34;;;;;;;3.83;1.48;;;;;;;29.20;40.07;96589.66;5074314;28;20024;-35
2022/06/29 11:43:19;;;;;;;4.22;1.40;;;;;;;29.16;39.46;96580.91;5074089;28;20047;-35
2022/06/29 11:45:47;;;;;;;4.47;1.45;;;;;;;29.13;39.83;96593.16;5074488;28;20025;-35
2022/06/29 11:48:16;;;;;;;4.82;2.00;;;;;;;29.11;40.07;96592.94;5074061;28;20036;-35
2022/06/29 11:50:59;;;;;;;3.42;1.48;;;;;;;29.10;39.96;96592.19;5074291;28;20025;-35